Terminal Aerodrome Forecast
Issued by NWS

Home | Current Version | Previous Version | Graphics & Text | Print | Product List | Glossary On
Versions: 1 2 3 4 5 6 7 8 9 10 11 12 13 14 15 16 17 18 19 20 21 22
000
FTUS43 KGRB 061140
TAFATW
TAF
KATW 061140Z 0612/0712 18006KT 6SM BR SCT008 OVC150
      TEMPO 0612/0616 4SM BR BKN008
     FM061600 19008KT 5SM BR BKN005
     FM061800 21009G14KT 6SM BR BKN007
     FM062000 23010G16KT P6SM BKN015
     FM062100 24011G17KT P6SM BKN024
     FM062200 25014G20KT P6SM SCT040=

USA.gov is the U.S. government's official web portal to all federal, state and local government web resources and services.